Time;durP1;ratioP1;P1;durP2;ratioP2;P2;SDS_P1;SDS_P2;PMS_P1;PMS_P2;Temp;Humidity;BMP_temperature;BMP_pressure;BME280_temperature;BME280_humidity;BME280_pressure;Samples;Min_cycle;Max_cycle;Signal;HPM_P1;HPM_P2
2023/11/26 00:02:20;;;;;;;1.23;1.13;;;;;;;21.26;52.75;96804.56;4935936;29;20205;-26
2023/11/26 00:04:47;;;;;;;1.20;1.20;;;;;;;21.26;52.61;96804.56;4936171;29;20260;-27
2023/11/26 00:07:13;;;;;;;1.40;1.30;;;;;;;21.26;52.87;96802.00;4935524;29;20691;-27
2023/11/26 00:09:40;;;;;;;1.43;1.33;;;;;;;21.26;52.84;96806.25;4934236;29;20672;-26
2023/11/26 00:12:09;;;;;;;1.20;1.10;;;;;;;21.26;52.66;96809.66;4935455;29;20205;-28
2023/11/26 00:14:39;;;;;;;1.30;1.20;;;;;;;21.27;52.60;96815.66;4935960;29;20296;-27
2023/11/26 00:17:06;;;;;;;1.40;1.30;;;;;;;21.27;52.80;96825.88;4935673;29;20647;-26
2023/11/26 00:19:35;;;;;;;0.97;0.97;;;;;;;21.27;52.76;96828.44;4935676;29;20212;-26
2023/11/26 00:22:01;;;;;;;1.40;1.30;;;;;;;21.26;52.81;96822.44;4935431;29;20280;-26
2023/11/26 00:24:28;;;;;;;1.30;1.20;;;;;;;21.26;52.91;96830.09;4935684;29;20209;-26
2023/11/26 00:26:55;;;;;;;1.30;1.20;;;;;;;21.27;52.63;96825.88;4935117;29;20264;-26
2023/11/26 00:29:21;;;;;;;1.20;1.20;;;;;;;21.27;52.83;96830.97;4934360;29;20236;-26
2023/11/26 00:31:49;;;;;;;1.30;1.20;;;;;;;21.27;52.69;96838.66;4935636;29;20292;-26
2023/11/26 00:34:15;;;;;;;1.10;1.10;;;;;;;21.27;52.84;96836.09;4935529;29;20576;-29
2023/11/26 00:36:42;;;;;;;1.07;1.00;;;;;;;21.27;52.71;96838.66;4935281;29;20229;-26
2023/11/26 00:39:09;;;;;;;1.43;1.33;;;;;;;21.26;52.76;96840.31;4935359;29;20208;-26
2023/11/26 00:41:35;;;;;;;1.00;1.00;;;;;;;21.26;52.88;96845.44;4935492;29;20244;-26
2023/11/26 00:44:02;;;;;;;1.07;1.07;;;;;;;21.26;52.63;96845.44;4935226;29;20267;-28
2023/11/26 00:46:29;;;;;;;1.20;1.10;;;;;;;21.26;52.76;96840.31;4935426;29;20236;-27
2023/11/26 00:48:55;;;;;;;1.20;1.10;;;;;;;21.27;52.93;96851.44;4935085;29;20224;-32
2023/11/26 00:51:22;;;;;;;1.20;1.10;;;;;;;21.27;52.90;96859.09;4935753;29;20204;-26
2023/11/26 00:53:49;;;;;;;1.10;1.10;;;;;;;21.27;52.76;96861.66;4938530;29;20280;-27
2023/11/26 00:56:15;;;;;;;1.40;1.30;;;;;;;21.26;52.76;96867.59;4938937;29;20354;-26
2023/11/26 00:58:42;;;;;;;1.10;1.10;;;;;;;21.26;52.64;96873.56;4938842;29;20204;-26
2023/11/26 01:01:08;;;;;;;1.37;1.27;;;;;;;21.24;53.01;96877.78;4939294;29;20259;-27
2023/11/26 01:03:35;;;;;;;1.33;1.23;;;;;;;21.27;52.55;96884.66;4938850;29;20208;-27
2023/11/26 01:06:02;;;;;;;1.00;1.00;;;;;;;21.26;52.94;96891.44;4938750;29;20656;-26
2023/11/26 01:08:29;;;;;;;1.30;1.20;;;;;;;21.26;52.58;96891.44;4938662;29;20287;-26
2023/11/26 01:10:55;;;;;;;1.07;1.07;;;;;;;21.26;52.50;96896.56;4939057;29;20307;-27
2023/11/26 01:13:22;;;;;;;1.37;1.27;;;;;;;21.26;52.61;96896.56;4932500;29;20695;-26
2023/11/26 01:15:48;;;;;;;1.30;1.20;;;;;;;21.27;52.04;96897.44;4938643;29;20563;-26
2023/11/26 01:18:15;;;;;;;1.30;1.20;;;;;;;21.26;52.60;96901.66;4936539;29;20249;-28
2023/11/26 01:20:42;;;;;;;1.17;1.17;;;;;;;21.27;52.75;96912.75;4938607;29;20299;-27
2023/11/26 01:23:08;;;;;;;1.30;1.20;;;;;;;21.27;52.51;96918.75;4938534;29;20292;-26
2023/11/26 01:25:35;;;;;;;1.30;1.20;;;;;;;21.27;52.75;96928.09;4938406;29;20264;-26
2023/11/26 01:28:02;;;;;;;1.20;1.10;;;;;;;21.27;52.65;96931.53;4938505;29;20650;-29
2023/11/26 01:30:28;;;;;;;1.50;1.20;;;;;;;21.27;52.67;96938.31;4938423;29;20236;-26
2023/11/26 01:32:55;;;;;;;1.10;1.10;;;;;;;21.28;52.40;96943.47;4938463;29;20205;-26
2023/11/26 01:35:22;;;;;;;1.20;1.10;;;;;;;21.28;52.59;96940.03;4938365;29;20729;-26
2023/11/26 01:37:48;;;;;;;1.30;1.20;;;;;;;21.27;52.64;96945.97;4938188;29;20220;-26
2023/11/26 01:40:15;;;;;;;1.30;1.20;;;;;;;21.26;52.46;96942.56;4938050;29;20244;-28
2023/11/26 01:42:43;;;;;;;1.00;1.00;;;;;;;21.27;52.52;96953.66;4938649;29;20299;-28
2023/11/26 01:45:13;;;;;;;1.23;1.13;;;;;;;21.27;52.63;96954.53;4937856;29;20366;-26
2023/11/26 01:47:40;;;;;;;1.00;1.00;;;;;;;21.26;52.36;96955.31;4932971;29;20240;-26
2023/11/26 01:50:09;;;;;;;1.23;1.13;;;;;;;21.18;52.55;96933.88;4941675;29;20260;-27
2023/11/26 01:52:36;;;;;;;1.20;1.20;;;;;;;21.26;52.48;96957.03;4938630;29;20208;-26
2023/11/26 01:55:04;;;;;;;1.23;1.17;;;;;;;21.26;52.61;96962.16;4938050;29;20213;-27
2023/11/26 01:57:30;;;;;;;1.10;1.10;;;;;;;21.27;52.39;96957.06;4937023;29;20253;-26
2023/11/26 01:59:57;;;;;;;1.30;1.20;;;;;;;21.27;52.52;96963.88;4937442;29;20257;-33
2023/11/26 02:02:24;;;;;;;1.00;1.00;;;;;;;21.25;52.46;96963.84;4920635;29;20780;-26
2023/11/26 02:04:51;;;;;;;1.73;1.10;;;;;;;21.26;52.30;96960.44;4936715;29;20209;-28
2023/11/26 02:07:17;;;;;;;1.10;1.00;;;;;;;21.27;52.14;96956.19;4937427;29;20225;-27
2023/11/26 02:09:44;;;;;;;1.27;1.17;;;;;;;21.26;52.23;96963.00;4937992;29;20345;-26
2023/11/26 02:12:12;;;;;;;1.07;1.07;;;;;;;21.27;52.47;96963.88;4937778;29;20228;-26
2023/11/26 02:14:39;;;;;;;1.43;1.33;;;;;;;21.26;52.39;96954.50;4938163;29;20201;-26
2023/11/26 02:17:06;;;;;;;1.10;1.00;;;;;;;21.26;52.14;96957.03;4937466;29;20240;-28
2023/11/26 02:19:34;;;;;;;1.47;1.30;;;;;;;21.26;52.42;96960.44;4937714;29;20201;-26
2023/11/26 02:22:01;;;;;;;1.00;1.00;;;;;;;21.26;52.21;96957.88;4936626;29;20207;-26
2023/11/26 02:24:29;;;;;;;1.20;1.10;;;;;;;21.27;52.42;96966.44;4937396;29;20560;-28
2023/11/26 02:26:56;;;;;;;1.10;1.10;;;;;;;21.25;52.43;96973.19;4937806;29;20229;-26
2023/11/26 02:29:23;;;;;;;1.00;1.00;;;;;;;21.27;52.48;96974.09;4937635;29;20280;-30
2023/11/26 02:31:50;;;;;;;1.10;1.10;;;;;;;21.27;52.26;96974.97;4937340;29;20291;-26
2023/11/26 02:34:17;;;;;;;1.23;1.20;;;;;;;21.27;52.20;96982.63;4938121;29;20288;-28
2023/11/26 02:36:44;;;;;;;1.00;1.00;;;;;;;21.26;52.06;96973.22;4938008;29;20221;-26
2023/11/26 02:39:11;;;;;;;1.17;1.07;;;;;;;21.26;52.51;96980.88;4936876;29;20201;-29
2023/11/26 02:41:37;;;;;;;1.10;1.10;;;;;;;21.26;52.10;96986.00;4937279;29;20208;-27
2023/11/26 02:44:05;;;;;;;1.40;1.30;;;;;;;21.26;52.27;96991.09;4937759;29;20236;-28
2023/11/26 02:46:31;;;;;;;1.00;1.00;;;;;;;21.27;52.04;97000.53;4937403;29;20227;-29
2023/11/26 02:48:58;;;;;;;1.33;1.20;;;;;;;21.26;52.15;97006.44;4937424;29;20221;-26
2023/11/26 02:51:24;;;;;;;1.47;1.37;;;;;;;21.26;52.09;97009.00;4937294;29;20208;-26
2023/11/26 02:53:51;;;;;;;1.33;1.00;;;;;;;21.26;52.12;97014.09;4936591;29;20201;-29
2023/11/26 02:56:17;;;;;;;1.30;1.20;;;;;;;21.26;51.97;97019.22;4937072;29;20280;-28
2023/11/26 02:58:45;;;;;;;1.27;1.17;;;;;;;21.25;51.99;97022.63;4937228;29;20205;-26
2023/11/26 03:01:18;;;;;;;1.20;1.10;;;;;;;21.26;51.90;97021.78;4951595;28;20201;-26
2023/11/26 03:03:47;;;;;;;1.10;1.10;;;;;;;21.26;52.00;97021.78;4935865;29;20322;-27
2023/11/26 03:06:17;;;;;;;1.00;1.00;;;;;;;21.25;52.25;97022.63;4935859;29;20651;-28
2023/11/26 03:08:44;;;;;;;0.93;0.93;;;;;;;21.26;51.91;97029.44;4936921;29;20252;-26
2023/11/26 03:13:56;;;;;;;1.10;1.10;;;;;;;21.26;52.14;97037.09;4937118;29;20248;-31
2023/11/26 03:16:26;;;;;;;1.20;1.10;;;;;;;21.26;52.04;97032.00;4935575;29;20316;-27
2023/11/26 03:18:53;;;;;;;1.40;1.30;;;;;;;21.25;51.92;97042.19;4935452;29;20205;-32
2023/11/26 03:21:26;;;;;;;1.13;1.10;;;;;;;21.26;52.00;97041.38;4935319;29;20232;-26
2023/11/26 03:23:53;;;;;;;1.20;1.10;;;;;;;21.25;52.12;97043.06;4931140;29;20205;-26
2023/11/26 03:26:26;;;;;;;1.00;1.00;;;;;;;21.27;52.10;97050.75;4936257;29;20640;-26
2023/11/26 03:28:54;;;;;;;1.27;1.20;;;;;;;21.26;52.10;97049.88;4930782;29;20231;-26
2023/11/26 03:31:23;;;;;;;1.17;1.07;;;;;;;21.27;52.00;97048.22;4936880;29;20208;-27
2023/11/26 03:33:52;;;;;;;1.30;1.20;;;;;;;21.26;51.97;97062.66;4936663;29;20209;-26
2023/11/26 03:36:19;;;;;;;1.00;1.00;;;;;;;21.27;52.17;97063.53;4936532;29;20221;-28
2023/11/26 03:38:46;;;;;;;1.00;1.00;;;;;;;21.27;52.05;97068.66;4936626;29;20700;-27
2023/11/26 03:41:12;;;;;;;1.20;1.10;;;;;;;21.26;52.15;97064.38;4936732;29;20296;-26
2023/11/26 03:43:39;;;;;;;1.20;1.10;;;;;;;21.26;52.15;97065.22;4932068;29;20243;-26
2023/11/26 03:46:06;;;;;;;1.00;1.00;;;;;;;21.27;52.22;97073.75;4936169;29;20638;-29
2023/11/26 03:48:33;;;;;;;1.10;1.10;;;;;;;21.27;51.93;97081.44;4935835;29;20276;-26
2023/11/26 03:51:00;;;;;;;1.07;1.00;;;;;;;21.27;52.13;97082.31;4935971;29;20252;-28
2023/11/26 03:53:26;;;;;;;1.00;1.00;;;;;;;21.26;51.97;97080.56;4935969;29;20268;-26
2023/11/26 03:55:53;;;;;;;1.27;1.17;;;;;;;21.18;52.04;97071.88;4936414;29;20307;-26
2023/11/26 03:58:20;;;;;;;1.00;1.00;;;;;;;21.26;52.02;97083.13;4936050;29;20649;-28
2023/11/26 04:00:47;;;;;;;1.00;1.00;;;;;;;21.27;52.23;97094.22;4936354;29;20200;-26
2023/11/26 04:03:14;;;;;;;1.03;1.00;;;;;;;21.26;52.07;97095.91;4936038;29;20215;-28
2023/11/26 04:05:41;;;;;;;1.10;1.10;;;;;;;21.27;51.99;97101.88;4935681;29;20211;-26
2023/11/26 04:08:08;;;;;;;1.00;1.00;;;;;;;21.27;51.89;97099.31;4935686;29;20205;-26
2023/11/26 04:10:35;;;;;;;1.20;1.10;;;;;;;21.27;51.86;97104.44;4935359;29;20633;-28
2023/11/26 04:13:07;;;;;;;1.43;1.33;;;;;;;21.28;52.21;97116.38;4931462;29;20205;-29
2023/11/26 04:15:33;;;;;;;1.10;1.10;;;;;;;21.27;52.05;97115.53;4936246;29;20292;-26
2023/11/26 04:18:00;;;;;;;1.13;1.03;;;;;;;21.27;52.08;97112.09;4936057;29;20300;-26
2023/11/26 04:20:28;;;;;;;1.30;1.20;;;;;;;21.27;51.86;97115.53;4935809;29;20244;-31
2023/11/26 04:22:54;;;;;;;1.00;1.00;;;;;;;21.27;52.03;97112.97;4935850;29;20295;-26
2023/11/26 04:25:21;;;;;;;1.20;1.10;;;;;;;21.25;52.07;97111.19;4934764;29;20204;-30
2023/11/26 04:27:48;;;;;;;1.20;1.10;;;;;;;21.27;52.03;97120.66;4935418;29;20228;-26
2023/11/26 04:30:15;;;;;;;1.20;1.10;;;;;;;21.27;51.91;97122.31;4935687;29;20259;-26
2023/11/26 04:32:41;;;;;;;1.27;1.10;;;;;;;21.28;52.05;97124.03;4935420;29;20252;-32
2023/11/26 04:35:08;;;;;;;1.00;1.00;;;;;;;21.19;51.89;97111.03;4935844;29;20630;-26
2023/11/26 04:37:34;;;;;;;1.20;1.10;;;;;;;21.27;51.97;97133.44;4935092;29;20235;-28
2023/11/26 04:40:01;;;;;;;1.00;1.00;;;;;;;21.26;51.93;97136.78;4935301;29;20225;-26
2023/11/26 04:42:28;;;;;;;1.07;1.00;;;;;;;21.28;51.98;97147.91;4935381;29;20205;-30
2023/11/26 04:44:54;;;;;;;0.90;0.90;;;;;;;21.27;51.82;97133.44;4935353;29;20208;-26
2023/11/26 04:47:21;;;;;;;1.07;1.03;;;;;;;21.27;51.87;97142.78;4935153;29;20250;-32
2023/11/26 04:49:47;;;;;;;1.20;1.10;;;;;;;21.27;52.01;97147.88;4935124;29;20307;-26
2023/11/26 04:52:14;;;;;;;1.00;1.00;;;;;;;21.27;51.92;97150.44;4935356;29;20215;-29
2023/11/26 04:54:41;;;;;;;1.07;1.00;;;;;;;21.28;51.78;97162.38;4935233;29;20240;-27
2023/11/26 04:57:09;;;;;;;1.00;1.00;;;;;;;21.27;52.07;97163.22;4934848;29;20774;-27
2023/11/26 04:59:35;;;;;;;1.10;1.00;;;;;;;21.26;51.65;97166.63;4935094;29;20245;-26
2023/11/26 05:02:06;;;;;;;1.00;1.00;;;;;;;21.26;51.91;97172.56;4935024;29;20553;-26
2023/11/26 05:04:33;;;;;;;1.00;1.00;;;;;;;21.27;51.91;97178.56;4934693;29;20634;-27
2023/11/26 05:07:00;;;;;;;0.90;0.90;;;;;;;21.26;51.79;97177.69;4934917;29;20302;-27
2023/11/26 05:09:26;;;;;;;1.00;1.00;;;;;;;21.26;51.97;97184.50;4934100;29;20273;-26
2023/11/26 05:11:53;;;;;;;1.00;1.00;;;;;;;21.26;51.81;97190.47;4935022;29;20200;-32
2023/11/26 05:14:19;;;;;;;1.30;1.20;;;;;;;21.26;51.72;97184.50;4935209;29;20253;-30
2023/11/26 05:16:46;;;;;;;1.20;1.10;;;;;;;21.26;51.87;97198.13;4934967;29;20217;-26
2023/11/26 05:19:12;;;;;;;1.00;1.00;;;;;;;21.25;51.51;97198.97;4934375;29;20239;-27
2023/11/26 05:21:39;;;;;;;0.90;0.90;;;;;;;21.26;51.67;97202.41;4934871;29;20268;-26
2023/11/26 05:24:06;;;;;;;1.10;1.00;;;;;;;21.25;51.65;97211.75;4935308;29;20608;-27
2023/11/26 05:26:33;;;;;;;1.00;1.00;;;;;;;21.25;51.59;97214.28;4934541;29;20312;-26
2023/11/26 05:29:00;;;;;;;0.90;0.90;;;;;;;21.26;51.97;97222.84;4935027;29;20224;-31
2023/11/26 05:31:26;;;;;;;0.97;0.97;;;;;;;21.26;51.72;97228.78;4935110;29;20208;-26
2023/11/26 05:33:54;;;;;;;1.27;1.07;;;;;;;21.26;51.70;97230.50;4934328;29;20291;-26
2023/11/26 05:36:20;;;;;;;0.90;0.90;;;;;;;21.25;51.59;97232.19;4935283;29;20225;-27
2023/11/26 05:38:47;;;;;;;1.10;1.00;;;;;;;21.25;51.61;97239.84;4935652;29;20248;-26
2023/11/26 05:41:14;;;;;;;0.90;0.90;;;;;;;21.26;51.55;97245.84;4938966;29;20201;-26
2023/11/26 05:43:41;;;;;;;1.00;1.00;;;;;;;21.25;51.73;97252.63;4938002;29;20201;-32
2023/11/26 05:46:07;;;;;;;1.30;1.20;;;;;;;21.25;51.68;97256.88;4938670;29;20251;-26
2023/11/26 05:48:34;;;;;;;1.00;1.00;;;;;;;21.25;51.83;97254.31;4938173;29;20204;-26
2023/11/26 05:51:02;;;;;;;1.00;1.00;;;;;;;21.24;51.61;97252.59;4932117;29;20724;-27
2023/11/26 05:53:32;;;;;;;0.90;0.90;;;;;;;21.25;51.56;97267.09;4938219;29;20205;-26
2023/11/26 05:55:59;;;;;;;1.47;1.13;;;;;;;21.25;51.57;97259.44;4937888;29;20736;-26
2023/11/26 05:58:25;;;;;;;1.13;1.03;;;;;;;21.23;51.17;97264.50;4937986;29;20652;-27
2023/11/26 06:00:53;;;;;;;1.33;1.20;;;;;;;21.24;51.47;97270.47;4938025;29;20571;-26
2023/11/26 06:03:20;;;;;;;1.00;1.00;;;;;;;21.24;51.50;97271.34;4938061;29;20204;-26
2023/11/26 06:05:46;;;;;;;1.13;1.10;;;;;;;21.24;51.74;97284.13;4937879;29;20208;-26
2023/11/26 06:08:13;;;;;;;1.17;1.10;;;;;;;21.24;51.61;97276.47;4938306;29;20672;-27
2023/11/26 06:10:39;;;;;;;1.10;1.10;;;;;;;21.25;51.71;97278.19;4937160;29;20307;-29
2023/11/26 06:13:06;;;;;;;1.00;1.00;;;;;;;21.25;51.66;97279.88;4937924;29;20269;-27
2023/11/26 06:15:33;;;;;;;0.90;0.90;;;;;;;21.24;51.60;97284.13;4938015;29;20292;-27
2023/11/26 06:17:59;;;;;;;1.00;1.00;;;;;;;21.24;51.53;97285.81;4937300;29;20212;-26
2023/11/26 06:20:27;;;;;;;1.10;1.10;;;;;;;21.24;51.61;97286.69;4937772;29;20241;-28
2023/11/26 06:22:53;;;;;;;1.50;1.30;;;;;;;21.23;51.59;97289.22;4937617;29;20220;-26
2023/11/26 06:25:20;;;;;;;1.00;1.00;;;;;;;21.23;51.47;97290.06;4937394;29;20197;-28
2023/11/26 06:27:46;;;;;;;1.30;1.10;;;;;;;21.24;51.63;97291.81;4937455;29;20233;-30
2023/11/26 06:30:14;;;;;;;1.47;1.17;;;;;;;21.24;51.41;97298.59;4937545;29;20704;-27
2023/11/26 06:32:42;;;;;;;1.47;1.37;;;;;;;21.24;51.50;97296.03;4937212;29;20201;-28
2023/11/26 06:35:08;;;;;;;1.27;1.17;;;;;;;21.23;51.41;97300.28;4937064;29;20201;-28
2023/11/26 06:37:35;;;;;;;1.17;1.10;;;;;;;21.23;51.50;97302.00;4937250;29;20228;-26
2023/11/26 06:40:04;;;;;;;1.33;1.23;;;;;;;21.24;51.67;97303.72;4937174;29;20205;-26
2023/11/26 06:42:32;;;;;;;1.10;1.03;;;;;;;21.24;51.61;97298.59;4933951;29;20209;-26
2023/11/26 06:44:58;;;;;;;1.03;1.03;;;;;;;21.24;51.61;97311.38;4930443;29;20408;-26
2023/11/26 06:47:25;;;;;;;1.10;1.10;;;;;;;21.24;51.21;97313.94;4937071;29;20232;-28
2023/11/26 06:49:52;;;;;;;1.10;1.10;;;;;;;21.24;51.68;97319.03;4936168;29;20743;-26
2023/11/26 06:52:19;;;;;;;1.00;1.00;;;;;;;21.23;51.51;97318.16;4936520;29;20308;-26
2023/11/26 06:54:46;;;;;;;1.30;1.10;;;;;;;21.23;51.62;97323.28;4937232;29;20296;-26
2023/11/26 06:57:12;;;;;;;1.57;1.20;;;;;;;21.23;51.43;97322.44;4937277;29;20288;-26
2023/11/26 06:59:39;;;;;;;1.03;1.03;;;;;;;21.24;51.43;97326.72;4937196;29;20264;-26
2023/11/26 07:02:08;;;;;;;1.20;1.10;;;;;;;21.24;51.51;97335.25;4937153;29;20292;-28
2023/11/26 07:04:35;;;;;;;1.30;1.20;;;;;;;21.24;51.41;97324.16;4936553;29;20264;-26
2023/11/26 07:07:02;;;;;;;1.00;1.00;;;;;;;21.24;51.49;97331.81;4937059;29;20229;-27
2023/11/26 07:09:28;;;;;;;1.00;1.00;;;;;;;21.24;51.47;97340.38;4936533;29;20707;-28
2023/11/26 07:11:55;;;;;;;1.40;1.30;;;;;;;21.24;51.50;97334.38;4937022;29;20209;-26
2023/11/26 07:14:23;;;;;;;1.30;1.20;;;;;;;21.24;51.59;97349.72;4936555;29;20230;-26
2023/11/26 07:16:53;;;;;;;1.30;1.20;;;;;;;21.24;51.61;97344.59;4936350;29;20233;-26
2023/11/26 07:19:20;;;;;;;1.20;1.10;;;;;;;21.24;51.56;97352.28;4936634;29;20205;-26
2023/11/26 07:21:47;;;;;;;1.27;1.17;;;;;;;21.24;51.32;97358.25;4936514;29;20264;-26
2023/11/26 07:24:13;;;;;;;1.60;1.30;;;;;;;21.24;51.61;97358.25;4936940;29;20309;-26
2023/11/26 07:26:40;;;;;;;1.20;1.10;;;;;;;21.24;51.44;97363.38;4936465;29;20634;-26
2023/11/26 07:29:08;;;;;;;1.53;1.20;;;;;;;21.24;51.33;97367.59;4936434;29;20224;-30
2023/11/26 07:31:37;;;;;;;1.00;1.00;;;;;;;21.24;51.40;97365.94;4936029;29;20201;-33
2023/11/26 07:34:05;;;;;;;1.13;1.10;;;;;;;21.24;51.34;97365.03;4936573;29;20280;-26
2023/11/26 07:36:32;;;;;;;1.20;1.10;;;;;;;21.24;51.43;97365.94;4936396;29;20232;-29
2023/11/26 07:38:59;;;;;;;1.40;1.30;;;;;;;21.24;51.31;97365.94;4935742;29;20201;-28
2023/11/26 07:41:26;;;;;;;1.03;1.03;;;;;;;21.23;51.31;97361.63;4936108;29;20742;-26
2023/11/26 07:43:53;;;;;;;1.07;1.07;;;;;;;21.23;51.54;97361.63;4935613;29;20252;-26
2023/11/26 07:46:20;;;;;;;1.47;1.37;;;;;;;21.23;51.42;97368.44;4935853;29;20228;-27
2023/11/26 07:48:48;;;;;;;1.40;1.30;;;;;;;21.24;51.49;97365.94;4935997;29;20260;-28
2023/11/26 07:51:15;;;;;;;1.27;1.20;;;;;;;21.23;51.32;97364.19;4936321;29;20225;-32
2023/11/26 07:53:42;;;;;;;1.40;1.30;;;;;;;21.24;51.24;97365.03;4935972;29;20216;-27
2023/11/26 07:56:08;;;;;;;1.10;1.10;;;;;;;21.24;51.57;97367.59;4935866;29;20252;-26
2023/11/26 07:58:36;;;;;;;1.27;1.17;;;;;;;21.23;50.91;97366.72;4936596;29;20284;-26
2023/11/26 08:01:03;;;;;;;1.20;1.10;;;;;;;21.24;51.34;97380.38;4935988;29;20209;-26
2023/11/26 08:03:33;;;;;;;1.40;1.30;;;;;;;21.24;51.11;97380.38;4936144;29;20292;-26
2023/11/26 08:06:03;;;;;;;1.27;1.20;;;;;;;21.23;51.34;97379.50;4935616;29;20225;-29
2023/11/26 08:08:36;;;;;;;1.27;1.17;;;;;;;21.24;51.06;97383.81;4936811;29;20774;-26
2023/11/26 08:11:07;;;;;;;1.40;1.30;;;;;;;21.24;51.34;97382.94;4935975;29;20224;-26
2023/11/26 08:13:38;;;;;;;1.30;1.20;;;;;;;21.23;51.45;97387.19;4935476;29;20211;-26
2023/11/26 08:16:07;;;;;;;1.10;1.10;;;;;;;21.23;51.34;97396.56;4935711;29;20243;-35
2023/11/26 08:18:37;;;;;;;1.20;1.20;;;;;;;21.24;51.37;97394.03;4935632;29;20248;-31
2023/11/26 08:21:06;;;;;;;1.40;1.30;;;;;;;21.24;51.32;97386.38;4935905;29;20234;-27
2023/11/26 08:23:34;;;;;;;1.60;1.30;;;;;;;21.23;51.26;97387.19;4935362;29;20232;-27
2023/11/26 08:26:01;;;;;;;1.30;1.20;;;;;;;21.23;51.28;97397.41;4934987;29;20240;-26
2023/11/26 08:28:39;;;;;;;1.60;1.20;;;;;;;21.19;51.29;97380.25;4935679;29;20208;-30
2023/11/26 08:31:06;;;;;;;1.30;1.20;;;;;;;21.23;51.34;97399.94;4949712;29;20639;-26
2023/11/26 08:33:39;;;;;;;1.30;1.20;;;;;;;21.23;51.05;97392.28;4935328;29;20237;-27
2023/11/26 08:36:07;;;;;;;1.40;1.30;;;;;;;21.24;51.31;97393.16;4936081;29;20217;-27
2023/11/26 08:38:38;;;;;;;1.33;1.23;;;;;;;21.22;51.16;97390.56;4935158;29;20205;-27
2023/11/26 08:41:10;;;;;;;1.30;1.20;;;;;;;21.24;50.87;97391.50;4935703;28;20206;-26
2023/11/26 08:43:41;;;;;;;1.53;1.40;;;;;;;21.23;51.13;97384.63;4935324;29;20659;-26
2023/11/26 08:46:09;;;;;;;1.57;1.40;;;;;;;21.24;51.23;97399.16;4935442;29;20220;-28
2023/11/26 08:48:38;;;;;;;1.40;1.30;;;;;;;21.24;50.79;97394.03;4935001;29;20296;-28
2023/11/26 08:51:05;;;;;;;1.13;1.13;;;;;;;21.24;51.17;97395.72;4935533;29;20235;-26
2023/11/26 08:53:32;;;;;;;1.30;1.20;;;;;;;21.23;51.11;97386.34;4935321;29;20296;-28
2023/11/26 08:56:00;;;;;;;1.40;1.30;;;;;;;21.23;50.94;97381.22;4934870;29;20323;-26
2023/11/26 08:58:27;;;;;;;1.40;1.30;;;;;;;21.25;50.94;97389.78;4935813;29;20660;-26
2023/11/26 09:00:53;;;;;;;1.13;1.03;;;;;;;21.25;51.07;97387.22;4934941;29;20698;-26
2023/11/26 09:03:22;;;;;;;1.30;1.20;;;;;;;21.24;50.98;97399.16;4935168;29;20201;-26
2023/11/26 09:05:49;;;;;;;1.40;1.30;;;;;;;21.25;50.86;97405.09;4934888;29;20212;-30
2023/11/26 09:08:16;;;;;;;1.23;1.20;;;;;;;21.25;50.81;97410.22;4935732;29;20207;-26
2023/11/26 09:10:43;;;;;;;1.40;1.30;;;;;;;21.24;51.16;97404.25;4934542;29;20228;-26
2023/11/26 09:13:10;;;;;;;1.50;1.40;;;;;;;21.24;50.87;97409.38;4935345;29;20266;-26
2023/11/26 09:15:38;;;;;;;1.20;1.10;;;;;;;21.24;51.09;97401.72;4938963;29;20673;-26
2023/11/26 09:18:04;;;;;;;1.20;1.20;;;;;;;21.23;51.00;97399.94;4938332;29;20712;-26
2023/11/26 09:20:31;;;;;;;1.10;1.10;;;;;;;21.24;51.03;97404.25;4939176;29;20228;-27
2023/11/26 09:22:58;;;;;;;1.40;1.30;;;;;;;21.24;50.88;97409.38;4938703;29;20236;-26
2023/11/26 09:25:24;;;;;;;1.17;1.13;;;;;;;21.24;50.97;97404.25;4939058;29;20252;-26
2023/11/26 09:27:51;;;;;;;1.40;1.30;;;;;;;21.25;51.07;97406.00;4938152;29;20272;-29
2023/11/26 09:30:18;;;;;;;1.47;1.37;;;;;;;21.25;50.95;97408.53;4938695;29;20216;-28
2023/11/26 09:32:44;;;;;;;1.40;1.30;;;;;;;21.23;51.04;97410.19;4938972;29;20204;-26
2023/11/26 09:35:11;;;;;;;1.70;1.43;;;;;;;21.16;50.91;97395.50;4938409;29;20616;-26
2023/11/26 09:37:38;;;;;;;1.50;1.40;;;;;;;21.25;50.94;97413.66;4938475;29;20221;-29
2023/11/26 09:40:06;;;;;;;1.50;1.40;;;;;;;21.25;51.00;97416.22;4938058;29;20296;-26
2023/11/26 09:42:32;;;;;;;1.30;1.20;;;;;;;21.25;50.99;97405.09;4933001;29;20201;-26
2023/11/26 09:45:00;;;;;;;1.40;1.30;;;;;;;21.25;51.38;97403.44;4938424;29;20269;-26
2023/11/26 09:47:26;;;;;;;1.70;1.60;;;;;;;21.26;50.88;97401.75;4938243;29;20572;-29
2023/11/26 09:49:53;;;;;;;1.50;1.40;;;;;;;21.25;51.24;97410.22;4942810;29;20221;-26
2023/11/26 09:52:20;;;;;;;1.57;1.37;;;;;;;21.25;50.84;97392.34;4936811;29;20236;-28
2023/11/26 09:54:49;;;;;;;1.50;1.40;;;;;;;21.25;50.98;97392.34;4918192;29;20371;-29
2023/11/26 09:57:15;;;;;;;1.67;1.40;;;;;;;21.24;50.98;97391.50;4948686;28;20229;-26
2023/11/26 09:59:42;;;;;;;1.40;1.30;;;;;;;21.25;51.21;97393.22;4938483;29;20205;-26
2023/11/26 10:02:11;;;;;;;1.40;1.30;;;;;;;21.25;51.12;97382.97;4938230;29;20255;-28
2023/11/26 10:04:44;;;;;;;1.40;1.30;;;;;;;21.25;51.13;97390.66;4933090;29;20208;-26
2023/11/26 10:07:10;;;;;;;1.47;1.37;;;;;;;21.26;51.17;97381.31;4937977;29;20307;-26
2023/11/26 10:09:37;;;;;;;1.50;1.40;;;;;;;21.25;51.25;97377.88;4937864;29;20296;-27
2023/11/26 10:12:05;;;;;;;1.50;1.40;;;;;;;21.25;51.17;97384.66;4937997;29;20209;-26
2023/11/26 10:14:31;;;;;;;1.40;1.30;;;;;;;21.26;51.15;97388.97;4937817;29;20236;-28
2023/11/26 10:17:10;;;;;;;1.40;1.30;;;;;;;21.26;51.09;97394.94;4937496;29;20225;-26
2023/11/26 10:19:37;;;;;;;1.40;1.30;;;;;;;21.26;51.32;97391.53;4938255;29;20231;-26
2023/11/26 10:22:03;;;;;;;1.67;1.40;;;;;;;21.25;51.08;97393.22;4937689;29;20750;-30
2023/11/26 10:24:30;;;;;;;1.30;1.20;;;;;;;21.25;51.39;97390.66;4937602;29;20249;-27
2023/11/26 10:26:59;;;;;;;1.40;1.30;;;;;;;21.25;51.26;97387.22;4937073;29;20231;-26
2023/11/26 10:29:29;;;;;;;1.33;1.23;;;;;;;21.26;51.30;97386.41;4937132;29;20638;-30
2023/11/26 10:32:06;;;;;;;1.10;1.10;;;;;;;21.25;51.43;97393.22;4937824;29;20228;-27
2023/11/26 10:34:34;;;;;;;1.73;1.53;;;;;;;21.24;51.50;97383.81;4937970;29;20211;-27
2023/11/26 10:37:02;;;;;;;1.50;1.37;;;;;;;21.26;51.37;97383.84;4937072;29;20232;-28
2023/11/26 10:39:28;;;;;;;1.50;1.40;;;;;;;21.26;51.20;97387.25;4937671;29;20671;-26
2023/11/26 10:41:55;;;;;;;1.50;1.40;;;;;;;21.26;51.00;97388.97;4936905;29;20695;-33
2023/11/26 10:44:22;;;;;;;1.43;1.33;;;;;;;21.25;51.21;97393.22;4936398;29;20288;-26
2023/11/26 10:46:48;;;;;;;1.57;1.47;;;;;;;21.25;51.30;97390.66;4937079;29;20315;-27
2023/11/26 10:49:22;;;;;;;1.47;1.37;;;;;;;21.25;51.20;97390.66;4936814;29;20296;-28
2023/11/26 10:51:57;;;;;;;1.40;1.30;;;;;;;21.25;51.33;97393.22;4937187;29;20229;-28
2023/11/26 10:54:27;;;;;;;1.50;1.40;;;;;;;21.26;51.48;97383.84;4937111;29;20205;-26
2023/11/26 10:56:54;;;;;;;1.30;1.20;;;;;;;21.25;51.48;97388.09;4936328;29;20245;-26
2023/11/26 10:59:21;;;;;;;1.87;1.50;;;;;;;21.26;51.26;97381.31;4935606;29;20303;-28
2023/11/26 11:01:47;;;;;;;1.33;1.23;;;;;;;21.25;51.50;97380.44;4920360;29;20197;-30
2023/11/26 11:04:14;;;;;;;1.47;1.37;;;;;;;21.26;51.32;97381.31;4913900;29;20268;-28
2023/11/26 11:06:44;;;;;;;1.40;1.30;;;;;;;21.25;51.19;97382.97;4936402;29;20240;-27
2023/11/26 11:09:13;;;;;;;1.60;1.50;;;;;;;21.24;51.22;97377.81;4936917;29;20469;-26
2023/11/26 11:11:51;;;;;;;1.30;1.20;;;;;;;21.24;51.27;97376.16;4920234;29;20236;-29
2023/11/26 11:14:18;;;;;;;1.40;1.30;;;;;;;21.26;51.39;97377.03;4936836;29;20916;-28
2023/11/26 11:16:44;;;;;;;1.40;1.30;;;;;;;21.25;51.25;97375.31;4937319;29;20221;-26
2023/11/26 11:19:11;;;;;;;1.53;1.43;;;;;;;21.26;51.48;97383.84;4919867;29;20215;-26
2023/11/26 11:21:47;;;;;;;1.50;1.40;;;;;;;21.24;51.41;97375.28;4937047;29;20248;-26
2023/11/26 11:24:19;;;;;;;1.60;1.50;;;;;;;21.25;51.38;97385.53;4936929;29;20256;-26
2023/11/26 11:26:49;;;;;;;1.50;1.40;;;;;;;21.25;51.46;97382.97;4936551;29;20236;-28
2023/11/26 11:29:32;;;;;;;1.40;1.30;;;;;;;21.26;51.34;97392.38;4936868;29;20208;-28
2023/11/26 11:32:04;;;;;;;1.50;1.40;;;;;;;21.26;51.47;97391.53;4936240;29;20692;-28
2023/11/26 11:34:32;;;;;;;1.30;1.20;;;;;;;21.25;51.32;97380.44;4929397;29;20714;-27
2023/11/26 11:36:59;;;;;;;1.40;1.30;;;;;;;21.26;51.38;97378.75;4936281;29;20225;-29
2023/11/26 11:39:46;;;;;;;1.60;1.50;;;;;;;21.27;51.66;97377.91;4928729;29;20205;-26